createdAt,value
2022-08-20T00:02:20.391Z,21.84
2022-08-20T00:04:49.871Z,21.85
2022-08-20T00:07:19.380Z,21.89
2022-08-20T00:09:48.701Z,21.91
2022-08-20T00:12:20.330Z,21.93
2022-08-20T00:14:49.629Z,21.95
2022-08-20T00:17:18.960Z,21.94
2022-08-20T00:19:48.263Z,21.92
2022-08-20T00:22:17.641Z,21.91
2022-08-20T00:24:47.127Z,21.88
2022-08-20T00:27:16.456Z,21.86
2022-08-20T00:29:45.752Z,21.85
2022-08-20T00:32:15.092Z,21.85
2022-08-20T00:34:48.292Z,21.86
2022-08-20T00:37:17.719Z,21.84
2022-08-20T00:39:47.206Z,21.80
2022-08-20T00:42:16.573Z,21.79
2022-08-20T00:44:50.282Z,21.75
2022-08-20T00:47:19.672Z,21.74
2022-08-20T00:49:49.063Z,21.70
2022-08-20T00:52:22.169Z,21.68
2022-08-20T00:55:01.351Z,21.66
2022-08-20T00:57:51.217Z,21.59
2022-08-20T01:00:35.797Z,21.56
2022-08-20T01:03:05.463Z,21.56
2022-08-20T01:05:57.800Z,21.48
2022-08-20T01:08:27.752Z,21.45
2022-08-20T01:11:08.164Z,21.44
2022-08-20T01:13:40.077Z,21.44
2022-08-20T01:16:29.153Z,21.43
2022-08-20T01:19:00.116Z,21.39
2022-08-20T01:21:33.600Z,21.36
2022-08-20T01:24:28.441Z,21.36
2022-08-20T01:26:59.688Z,21.34
2022-08-20T01:29:34.619Z,21.34
2022-08-20T01:32:04.004Z,21.37
2022-08-20T01:34:33.625Z,21.34
2022-08-20T01:37:03.018Z,21.31
2022-08-20T01:39:36.845Z,21.30
2022-08-20T01:42:30.052Z,21.25
2022-08-20T01:44:59.503Z,21.25
2022-08-20T01:47:38.531Z,21.23
2022-08-20T01:50:20.764Z,21.22
2022-08-20T01:53:06.691Z,21.21
2022-08-20T01:55:36.181Z,21.21
2022-08-20T01:58:05.636Z,21.25
2022-08-20T02:00:35.956Z,21.20
2022-08-20T02:03:06.236Z,21.21
2022-08-20T02:05:36.049Z,21.21
2022-08-20T02:08:06.988Z,21.21
2022-08-20T02:10:37.621Z,21.21
2022-08-20T02:13:09.974Z,21.18
2022-08-20T02:15:43.080Z,21.20
2022-08-20T02:18:15.527Z,21.22
2022-08-20T02:20:46.047Z,21.21
2022-08-20T02:23:16.327Z,21.18
2022-08-20T02:25:48.267Z,21.18
2022-08-20T02:28:20.723Z,21.16
2022-08-20T02:30:55.322Z,21.18
2022-08-20T02:33:26.147Z,21.18
2022-08-20T02:35:57.211Z,21.15
2022-08-20T02:38:27.382Z,21.14
2022-08-20T02:40:56.725Z,21.15
2022-08-20T02:43:26.305Z,21.14
2022-08-20T02:45:55.796Z,21.17
2022-08-20T02:48:25.307Z,21.16
2022-08-20T02:50:58.522Z,21.16
2022-08-20T02:53:29.399Z,21.14
2022-08-20T02:55:59.911Z,21.16
2022-08-20T02:58:30.009Z,21.16
2022-08-20T03:00:59.424Z,21.17
2022-08-20T03:03:28.829Z,21.18
2022-08-20T03:06:00.683Z,21.15
2022-08-20T03:08:31.333Z,21.14
2022-08-20T03:11:00.767Z,21.06
2022-08-20T03:13:30.205Z,20.97
2022-08-20T03:16:02.920Z,20.94
2022-08-20T03:18:39.554Z,20.94
2022-08-20T03:21:10.764Z,20.94
2022-08-20T03:23:44.515Z,20.90
2022-08-20T03:26:16.511Z,20.92
2022-08-20T03:28:46.352Z,20.85
2022-08-20T03:31:19.060Z,20.83
2022-08-20T03:33:52.864Z,20.82
2022-08-20T03:36:28.639Z,20.88
2022-08-20T03:39:05.164Z,20.89
2022-08-20T03:41:34.892Z,20.91
2022-08-20T03:44:04.667Z,20.85
2022-08-20T03:46:34.109Z,20.75
2022-08-20T03:49:03.430Z,20.72
2022-08-20T03:51:34.412Z,20.71
2022-08-20T03:54:24.250Z,20.72
2022-08-20T03:57:02.398Z,20.73
2022-08-20T03:59:33.339Z,20.71
2022-08-20T04:02:03.738Z,20.75
2022-08-20T04:04:33.168Z,20.79
2022-08-20T04:07:02.644Z,20.76
2022-08-20T04:09:32.019Z,20.80
2022-08-20T04:12:01.552Z,20.74
2022-08-20T04:14:31.122Z,20.79
2022-08-20T04:17:01.176Z,20.79
2022-08-20T04:19:34.209Z,20.80
2022-08-20T04:22:04.680Z,20.80
2022-08-20T04:24:34.917Z,20.78
2022-08-20T04:27:05.492Z,20.79
2022-08-20T04:29:36.704Z,20.80
2022-08-20T04:32:09.757Z,20.82
2022-08-20T04:34:39.290Z,20.86
2022-08-20T04:37:17.361Z,20.89
2022-08-20T04:40:06.961Z,20.93
2022-08-20T04:42:41.516Z,20.96
2022-08-20T04:45:13.423Z,20.94
2022-08-20T04:47:42.775Z,20.97
2022-08-20T04:50:17.016Z,20.98
2022-08-20T04:52:50.446Z,20.97
2022-08-20T04:55:20.291Z,21.01
2022-08-20T04:57:49.746Z,21.03
2022-08-20T05:00:20.439Z,21.05
2022-08-20T05:02:49.886Z,21.06
2022-08-20T05:05:21.622Z,21.06
2022-08-20T05:07:50.987Z,21.06
2022-08-20T05:10:23.606Z,21.06
2022-08-20T05:12:57.031Z,21.08
2022-08-20T05:15:27.396Z,21.13
2022-08-20T05:18:04.800Z,21.14
2022-08-20T05:20:38.882Z,21.13
2022-08-20T05:23:10.313Z,21.13
2022-08-20T05:25:41.096Z,21.12
2022-08-20T05:28:13.879Z,21.14
2022-08-20T05:30:45.483Z,21.16
2022-08-20T05:33:19.877Z,21.13
2022-08-20T05:35:51.168Z,21.18
2022-08-20T05:38:22.013Z,21.15
2022-08-20T05:40:51.482Z,21.12
2022-08-20T05:43:21.535Z,21.13
2022-08-20T05:45:56.488Z,21.11
2022-08-20T05:48:28.054Z,21.12
2022-08-20T05:50:58.646Z,21.12
2022-08-20T05:53:28.703Z,21.14
2022-08-20T05:55:58.024Z,21.15
2022-08-20T05:58:32.913Z,21.17
2022-08-20T06:01:02.413Z,21.23
2022-08-20T06:03:44.488Z,21.22
2022-08-20T06:06:17.947Z,21.18
2022-08-20T06:09:03.425Z,21.15
2022-08-20T06:11:37.026Z,21.13
2022-08-20T06:14:07.587Z,21.09
2022-08-20T06:16:37.585Z,21.09
2022-08-20T06:19:11.302Z,21.06
2022-08-20T06:21:41.874Z,21.08
2022-08-20T06:24:11.870Z,21.13
2022-08-20T06:26:41.240Z,21.11
2022-08-20T06:29:10.600Z,21.07
2022-08-20T06:31:41.409Z,21.12
2022-08-20T06:34:10.868Z,21.10
2022-08-20T06:36:40.193Z,21.09
2022-08-20T06:39:12.231Z,21.11
2022-08-20T06:41:41.720Z,21.16
2022-08-20T06:44:13.255Z,21.19
2022-08-20T06:46:43.999Z,21.27
2022-08-20T06:49:14.443Z,21.32
2022-08-20T06:51:43.779Z,21.32
2022-08-20T06:54:13.571Z,21.43
2022-08-20T06:56:44.440Z,21.38
2022-08-20T06:59:13.791Z,21.41
2022-08-20T07:01:43.429Z,21.50
2022-08-20T07:04:12.800Z,21.58
2022-08-20T07:06:42.128Z,21.64
2022-08-20T07:09:11.611Z,21.64
2022-08-20T07:11:42.258Z,21.57
2022-08-20T07:14:13.436Z,21.55
2022-08-20T07:16:43.805Z,21.58
2022-08-20T07:19:13.438Z,21.62
2022-08-20T07:21:43.096Z,21.62
2022-08-20T07:24:12.792Z,21.67
2022-08-20T07:26:42.191Z,21.83
2022-08-20T07:29:12.793Z,21.95
2022-08-20T07:31:54.616Z,21.99
2022-08-20T07:34:25.664Z,21.96
2022-08-20T07:36:55.078Z,22.07
2022-08-20T07:39:24.544Z,22.12
2022-08-20T07:42:03.332Z,22.13
2022-08-20T07:44:33.638Z,22.06
2022-08-20T07:47:05.564Z,22.08
2022-08-20T07:49:35.411Z,22.07
2022-08-20T07:52:04.834Z,22.08
2022-08-20T07:54:38.169Z,22.13
2022-08-20T07:57:07.864Z,22.11
2022-08-20T07:59:37.622Z,22.12
2022-08-20T08:02:08.502Z,22.14
2022-08-20T08:04:39.992Z,22.17
2022-08-20T08:07:13.065Z,22.20
2022-08-20T08:09:44.003Z,22.26
2022-08-20T08:12:17.074Z,22.30
2022-08-20T08:14:48.436Z,22.41
2022-08-20T08:17:19.396Z,22.49
2022-08-20T08:19:52.649Z,22.61
2022-08-20T08:22:22.740Z,22.71
2022-08-20T08:24:57.095Z,22.77
2022-08-20T08:27:27.177Z,22.77
2022-08-20T08:29:56.612Z,22.76
2022-08-20T08:32:25.969Z,22.80
2022-08-20T08:34:55.402Z,22.81
2022-08-20T08:37:26.959Z,22.85
2022-08-20T08:39:59.543Z,22.96
2022-08-20T08:42:42.577Z,23.04
2022-08-20T08:45:13.573Z,22.96
2022-08-20T08:47:43.455Z,22.97
2022-08-20T08:50:38.530Z,23.04
2022-08-20T08:53:18.432Z,23.26
2022-08-20T08:55:47.929Z,23.36
2022-08-20T08:58:17.631Z,23.40
2022-08-20T09:00:55.858Z,23.54
2022-08-20T09:03:31.538Z,23.53
2022-08-20T09:06:03.315Z,23.59
2022-08-20T09:08:42.121Z,23.88
2022-08-20T09:11:11.775Z,23.97
2022-08-20T09:13:43.141Z,24.10
2022-08-20T09:16:13.928Z,24.33
2022-08-20T09:18:43.944Z,24.63
2022-08-20T09:21:14.546Z,24.81
2022-08-20T09:23:44.831Z,25.00
2022-08-20T09:26:14.591Z,25.26
2022-08-20T09:28:44.153Z,25.52
2022-08-20T09:31:20.603Z,25.82
2022-08-20T09:33:53.407Z,25.83
2022-08-20T09:36:31.803Z,25.67
2022-08-20T09:39:03.169Z,25.33
2022-08-20T09:41:34.528Z,24.94
2022-08-20T09:44:04.427Z,24.58
2022-08-20T09:46:33.816Z,24.31
2022-08-20T09:49:03.200Z,24.25
2022-08-20T09:51:33.111Z,24.29
2022-08-20T09:54:02.681Z,24.24
2022-08-20T09:56:36.047Z,24.17
2022-08-20T09:59:05.672Z,24.15
2022-08-20T10:01:35.982Z,24.21
2022-08-20T10:04:05.557Z,24.37
2022-08-20T10:06:37.788Z,24.66
2022-08-20T10:09:07.297Z,24.96
2022-08-20T10:11:37.000Z,25.34
2022-08-20T10:14:07.435Z,25.26
2022-08-20T10:16:36.793Z,25.14
2022-08-20T10:19:07.667Z,24.90
2022-08-20T10:21:38.969Z,24.80
2022-08-20T10:24:09.284Z,24.77
2022-08-20T10:26:40.900Z,24.79
2022-08-20T10:29:13.409Z,24.93
2022-08-20T10:31:43.473Z,25.28
2022-08-20T10:34:12.785Z,25.73
2022-08-20T10:36:47.500Z,26.04
2022-08-20T10:39:16.891Z,26.30
2022-08-20T10:41:46.184Z,26.39
2022-08-20T10:44:17.659Z,26.27
2022-08-20T10:46:47.709Z,25.96
2022-08-20T10:49:17.237Z,25.75
2022-08-20T10:51:46.654Z,25.75
2022-08-20T10:54:16.972Z,25.61
2022-08-20T10:56:46.418Z,25.55
2022-08-20T10:59:16.113Z,25.48
2022-08-20T11:01:45.449Z,25.37
2022-08-20T11:04:14.821Z,25.27
2022-08-20T11:06:47.009Z,25.45
2022-08-20T11:09:16.400Z,25.83
2022-08-20T11:11:45.938Z,26.13
2022-08-20T11:14:15.238Z,26.16
2022-08-20T11:16:44.568Z,25.98
2022-08-20T11:19:13.931Z,26.10
2022-08-20T11:21:43.351Z,26.26
2022-08-20T11:24:12.670Z,26.36
2022-08-20T11:26:42.060Z,26.61
2022-08-20T11:29:12.685Z,26.93
2022-08-20T11:31:42.081Z,27.18
2022-08-20T11:34:13.368Z,27.25
2022-08-20T11:36:43.526Z,27.45
2022-08-20T11:39:13.099Z,27.42
2022-08-20T11:41:45.807Z,27.30
2022-08-20T11:44:21.102Z,27.03
2022-08-20T11:46:51.231Z,27.08
2022-08-20T11:49:20.568Z,27.05
2022-08-20T11:51:50.356Z,27.20
2022-08-20T11:54:20.187Z,26.99
2022-08-20T11:56:50.680Z,26.85
2022-08-20T11:59:20.997Z,26.91
2022-08-20T12:02:02.730Z,27.07
2022-08-20T12:04:38.350Z,27.32
2022-08-20T12:07:16.581Z,27.53
2022-08-20T12:09:51.240Z,27.52
2022-08-20T12:12:23.516Z,27.40
2022-08-20T12:14:54.550Z,27.08
2022-08-20T12:17:32.852Z,26.96
2022-08-20T12:20:05.529Z,26.86
2022-08-20T12:22:35.031Z,26.79
2022-08-20T12:25:04.867Z,26.79
2022-08-20T12:27:36.222Z,26.88
2022-08-20T12:30:12.429Z,27.11
2022-08-20T12:32:42.450Z,27.21
2022-08-20T12:35:13.652Z,27.26
2022-08-20T12:37:44.797Z,27.13
2022-08-20T12:40:17.327Z,26.99
2022-08-20T12:43:00.327Z,26.87
2022-08-20T12:45:29.680Z,26.97
2022-08-20T12:48:14.234Z,27.24
2022-08-20T12:50:50.070Z,27.56
2022-08-20T12:53:19.715Z,27.57
2022-08-20T12:55:49.412Z,27.27
2022-08-20T12:58:19.439Z,27.06
2022-08-20T13:00:51.392Z,27.06
2022-08-20T13:03:21.817Z,27.17
2022-08-20T13:05:53.057Z,27.32
2022-08-20T13:08:22.467Z,27.74
2022-08-20T13:10:52.074Z,28.11
2022-08-20T13:13:21.578Z,28.03
2022-08-20T13:15:52.931Z,27.74
2022-08-20T13:18:23.224Z,27.15
2022-08-20T13:20:52.671Z,26.72
2022-08-20T13:23:22.017Z,26.60
2022-08-20T13:25:51.515Z,26.69
2022-08-20T13:28:20.859Z,27.06
2022-08-20T13:30:50.437Z,27.32
2022-08-20T13:33:19.755Z,27.14
2022-08-20T13:35:49.180Z,27.05
2022-08-20T13:38:18.541Z,27.04
2022-08-20T13:40:49.067Z,26.99
2022-08-20T13:43:18.507Z,27.02
2022-08-20T13:45:47.818Z,26.97
2022-08-20T13:48:17.148Z,27.05
2022-08-20T13:50:47.653Z,26.92
2022-08-20T13:53:17.690Z,26.79
2022-08-20T13:55:49.155Z,26.74
2022-08-20T13:58:19.526Z,26.89
2022-08-20T14:00:49.210Z,27.02
2022-08-20T14:03:20.156Z,27.23
2022-08-20T14:05:54.964Z,27.60
2022-08-20T14:08:26.337Z,27.86
2022-08-20T14:10:55.688Z,28.03
2022-08-20T14:13:28.052Z,28.28
2022-08-20T14:15:58.775Z,28.44
2022-08-20T14:18:28.221Z,28.57
2022-08-20T14:20:57.715Z,28.40
2022-08-20T14:23:27.023Z,28.18
2022-08-20T14:25:57.500Z,28.25
2022-08-20T14:28:27.647Z,28.34
2022-08-20T14:30:57.220Z,28.47
2022-08-20T14:33:27.077Z,28.50
2022-08-20T14:35:58.437Z,28.27
2022-08-20T14:38:27.777Z,28.29
2022-08-20T14:40:57.720Z,28.34
2022-08-20T14:43:27.092Z,28.20
2022-08-20T14:45:56.444Z,28.10
2022-08-20T14:48:28.208Z,28.02
2022-08-20T14:50:59.525Z,27.93
2022-08-20T14:53:28.837Z,27.90
2022-08-20T14:55:58.241Z,27.80
2022-08-20T14:58:28.308Z,27.78
2022-08-20T15:00:57.698Z,27.84
2022-08-20T15:03:30.508Z,27.83
2022-08-20T15:06:01.591Z,27.69
2022-08-20T15:08:31.610Z,27.66
2022-08-20T15:11:01.081Z,27.67
2022-08-20T15:13:30.480Z,27.69
2022-08-20T15:15:59.895Z,27.70
2022-08-20T15:18:29.354Z,27.59
2022-08-20T15:20:58.676Z,27.52
2022-08-20T15:23:27.989Z,27.50
2022-08-20T15:25:57.396Z,27.51
2022-08-20T15:28:26.774Z,27.55
2022-08-20T15:30:56.165Z,27.58
2022-08-20T15:33:26.851Z,27.46
2022-08-20T15:35:56.206Z,27.28
2022-08-20T15:38:25.602Z,27.31
2022-08-20T15:40:54.993Z,27.32
2022-08-20T15:43:24.451Z,27.24
2022-08-20T15:45:53.880Z,26.95
2022-08-20T15:48:33.415Z,26.86
2022-08-20T15:51:12.881Z,26.80
2022-08-20T15:53:54.852Z,26.80
2022-08-20T15:56:35.400Z,26.71
2022-08-20T15:59:48.202Z,26.69
2022-08-20T16:02:46.295Z,26.64
2022-08-20T16:05:30.623Z,26.61
2022-08-20T16:08:05.645Z,26.59
2022-08-20T16:10:53.745Z,26.63
2022-08-20T16:13:40.971Z,26.61
2022-08-20T16:16:19.357Z,26.52
2022-08-20T16:18:52.799Z,26.48
2022-08-20T16:21:40.020Z,26.46
2022-08-20T16:24:12.769Z,26.44
2022-08-20T16:26:57.989Z,26.50
2022-08-20T16:30:09.026Z,26.53
2022-08-20T16:32:46.701Z,26.54
2022-08-20T16:35:31.176Z,26.61
2022-08-20T16:38:10.083Z,26.64
2022-08-20T16:40:49.717Z,26.60
2022-08-20T16:43:42.381Z,26.52
2022-08-20T16:46:37.830Z,26.29
2022-08-20T16:49:14.473Z,26.19
2022-08-20T16:52:04.190Z,25.99
2022-08-20T16:54:33.536Z,25.98
2022-08-20T16:57:06.627Z,25.92
2022-08-20T16:59:37.122Z,25.89
2022-08-20T17:02:14.063Z,25.83
2022-08-20T17:04:53.273Z,25.74
2022-08-20T17:07:33.579Z,25.69
2022-08-20T17:10:26.443Z,25.68
2022-08-20T17:13:02.591Z,25.67
2022-08-20T17:15:39.811Z,25.80
2022-08-20T17:18:37.101Z,25.82
2022-08-20T17:21:23.437Z,25.75
2022-08-20T17:24:17.743Z,25.69
2022-08-20T17:26:55.019Z,25.64
2022-08-20T17:29:30.036Z,25.59
2022-08-20T17:32:02.716Z,25.53
2022-08-20T17:34:50.018Z,25.53
2022-08-20T17:37:26.872Z,25.39
2022-08-20T17:40:08.157Z,25.22
2022-08-20T17:42:50.043Z,25.06
2022-08-20T17:45:27.759Z,24.90
2022-08-20T17:48:01.054Z,24.84
2022-08-20T17:50:35.779Z,24.82
2022-08-20T17:53:23.908Z,24.70
2022-08-20T17:55:58.621Z,24.59
2022-08-20T17:58:54.955Z,24.46
2022-08-20T18:01:26.050Z,24.38
2022-08-20T18:03:56.096Z,24.33
2022-08-20T18:06:55.447Z,24.27
2022-08-20T18:09:58.235Z,24.22
2022-08-20T18:12:35.433Z,24.11
2022-08-20T18:15:25.527Z,24.07
2022-08-20T18:18:00.995Z,24.03
2022-08-20T18:20:49.144Z,23.93
2022-08-20T18:23:23.684Z,23.90
2022-08-20T18:26:00.164Z,23.81
2022-08-20T18:28:38.546Z,23.79
2022-08-20T18:31:13.397Z,23.71
2022-08-20T18:33:45.806Z,23.54
2022-08-20T18:36:22.080Z,23.52
2022-08-20T18:39:11.996Z,23.39
2022-08-20T18:41:44.372Z,23.33
2022-08-20T18:44:17.554Z,23.23
2022-08-20T18:47:17.733Z,23.12
2022-08-20T18:49:47.300Z,23.04
2022-08-20T18:52:29.067Z,22.90
2022-08-20T18:55:03.027Z,22.86
2022-08-20T18:57:41.676Z,22.81
2022-08-20T19:00:14.552Z,22.74
2022-08-20T19:03:12.503Z,22.64
2022-08-20T19:06:02.364Z,22.59
2022-08-20T19:09:19.936Z,22.43
2022-08-20T19:12:17.470Z,22.42
2022-08-20T19:15:07.152Z,22.30
2022-08-20T19:17:44.851Z,22.26
2022-08-20T19:20:19.157Z,22.19
2022-08-20T19:22:53.837Z,22.13
2022-08-20T19:25:27.510Z,22.08
2022-08-20T19:28:18.432Z,22.09
2022-08-20T19:30:47.862Z,21.94
2022-08-20T19:33:17.285Z,21.88
2022-08-20T19:35:49.045Z,21.87
2022-08-20T19:38:19.239Z,21.78
2022-08-20T19:40:53.625Z,21.74
2022-08-20T19:43:46.104Z,21.74
2022-08-20T19:46:21.342Z,21.68
2022-08-20T19:49:15.406Z,21.67
2022-08-20T19:52:22.680Z,21.55
2022-08-20T19:55:01.282Z,21.48
2022-08-20T19:57:32.978Z,21.44
2022-08-20T20:00:13.208Z,21.38
2022-08-20T20:02:42.739Z,21.31
2022-08-20T20:05:13.127Z,21.23
2022-08-20T20:07:52.075Z,21.18
2022-08-20T20:10:37.767Z,21.11
2022-08-20T20:13:17.979Z,21.05
2022-08-20T20:15:47.612Z,21.00
2022-08-20T20:18:17.028Z,20.94
2022-08-20T20:20:57.975Z,20.86
2022-08-20T20:23:46.104Z,20.75
2022-08-20T20:26:20.308Z,20.72
2022-08-20T20:28:53.808Z,20.67
2022-08-20T20:31:28.118Z,20.60
2022-08-20T20:34:03.992Z,20.51
2022-08-20T20:37:02.763Z,20.40
2022-08-20T20:39:37.146Z,20.33
2022-08-20T20:42:10.343Z,20.28
2022-08-20T20:44:46.108Z,20.16
2022-08-20T20:47:26.656Z,20.04
2022-08-20T20:50:00.482Z,19.95
2022-08-20T20:52:30.750Z,19.92
2022-08-20T20:55:23.330Z,19.88
2022-08-20T20:57:53.414Z,19.85
2022-08-20T21:00:25.666Z,19.74
2022-08-20T21:02:55.393Z,19.67
2022-08-20T21:05:27.330Z,19.56
2022-08-20T21:08:03.499Z,19.49
2022-08-20T21:10:37.552Z,19.45
2022-08-20T21:13:08.759Z,19.38
2022-08-20T21:15:39.956Z,19.32
2022-08-20T21:18:11.649Z,19.26
2022-08-20T21:20:41.115Z,19.22
2022-08-20T21:23:10.415Z,19.18
2022-08-20T21:25:42.896Z,19.06
2022-08-20T21:28:12.402Z,19.07
2022-08-20T21:30:41.824Z,19.03
2022-08-20T21:33:11.134Z,18.99
2022-08-20T21:35:40.599Z,18.96
2022-08-20T21:38:09.898Z,18.87
2022-08-20T21:40:43.227Z,18.88
2022-08-20T21:43:15.595Z,18.84
2022-08-20T21:45:49.547Z,18.80
2022-08-20T21:48:19.327Z,18.73
2022-08-20T21:50:48.866Z,18.69
2022-08-20T21:53:18.294Z,18.66
2022-08-20T21:55:47.642Z,18.58
2022-08-20T21:58:16.979Z,18.55
2022-08-20T22:00:55.093Z,18.50
2022-08-20T22:03:27.526Z,18.44
2022-08-20T22:05:57.512Z,18.37
2022-08-20T22:08:28.365Z,18.32
2022-08-20T22:10:59.004Z,18.32
2022-08-20T22:13:31.873Z,18.27
2022-08-20T22:16:03.921Z,18.23
2022-08-20T22:18:33.583Z,18.18
2022-08-20T22:21:03.404Z,18.08
2022-08-20T22:23:32.752Z,18.12
2022-08-20T22:26:02.194Z,18.10
2022-08-20T22:28:31.576Z,18.08
2022-08-20T22:31:01.330Z,18.02
2022-08-20T22:33:30.760Z,17.96
2022-08-20T22:36:00.764Z,17.90
2022-08-20T22:38:30.490Z,17.88
2022-08-20T22:41:00.320Z,17.84
2022-08-20T22:43:29.727Z,17.82
2022-08-20T22:46:03.402Z,17.80
2022-08-20T22:48:33.439Z,17.76
2022-08-20T22:51:03.282Z,17.76
2022-08-20T22:53:34.004Z,17.72
2022-08-20T22:56:03.650Z,17.67
2022-08-20T22:58:33.671Z,17.65
2022-08-20T23:01:05.284Z,17.62
2022-08-20T23:03:40.250Z,17.56
2022-08-20T23:06:14.213Z,17.56
2022-08-20T23:08:45.510Z,17.52
2022-08-20T23:11:15.425Z,17.47
2022-08-20T23:13:44.735Z,17.41
2022-08-20T23:16:14.257Z,17.35
2022-08-20T23:18:43.807Z,17.29
2022-08-20T23:21:13.111Z,17.24
2022-08-20T23:23:42.417Z,17.21
2022-08-20T23:26:14.368Z,17.19
2022-08-20T23:28:43.755Z,17.17
2022-08-20T23:31:13.255Z,17.15
2022-08-20T23:33:44.858Z,17.11
2022-08-20T23:36:15.179Z,17.07
2022-08-20T23:38:45.276Z,17.06
2022-08-20T23:41:18.678Z,17.00
2022-08-20T23:43:48.137Z,16.95
2022-08-20T23:46:17.623Z,16.90
2022-08-20T23:48:47.017Z,16.83
2022-08-20T23:51:16.403Z,16.79
2022-08-20T23:53:45.731Z,16.76
2022-08-20T23:56:15.399Z,16.74
2022-08-20T23:58:44.764Z,16.73
